Terminal Aerodrome Forecast
Issued by NWS

Home | Current Version | Previous Version | Text Only | Print | Product List | Glossary On
Versions: 1 2 3 4 5 6 7 8 9 10 11 12 13 14 15 16 17 18 19 20 21 22 23 24
940
FTUS43 KILX 202338
TAFBMI
TAF
KBMI 202338Z 2100/2124 16017KT P6SM SCT100 BKN200
     FM210700 20012KT 3SM -SHRA BR OVC035
     FM210900 22008KT 3SM BR VCSH BKN006 OVC012
     FM211700 26006KT 4SM BR SCT012 BKN035
     FM212000 27005KT P6SM BKN250=

USA.gov is the U.S. government's official web portal to all federal, state and local government web resources and services.